sensor_id;sensor_type;location;lat;lon;timestamp;P1;durP1;ratioP1;P2;durP2;ratioP2
9124;SDS011;4597;48.730;9.114;2023-05-16T00:00:16;12.43;;;11.07;;
9124;SDS011;4597;48.730;9.114;2023-05-16T00:02:42;12.77;;;11.57;;
9124;SDS011;4597;48.730;9.114;2023-05-16T00:05:08;12.33;;;11.33;;
9124;SDS011;4597;48.730;9.114;2023-05-16T00:07:41;14.50;;;13.10;;
9124;SDS011;4597;48.730;9.114;2023-05-16T00:10:08;14.00;;;12.60;;
9124;SDS011;4597;48.730;9.114;2023-05-16T00:12:34;13.47;;;12.23;;
9124;SDS011;4597;48.730;9.114;2023-05-16T00:15:01;14.23;;;12.70;;
9124;SDS011;4597;48.730;9.114;2023-05-16T00:17:29;14.43;;;12.93;;
9124;SDS011;4597;48.730;9.114;2023-05-16T00:19:54;13.87;;;12.60;;
9124;SDS011;4597;48.730;9.114;2023-05-16T00:22:23;14.50;;;13.07;;
9124;SDS011;4597;48.730;9.114;2023-05-16T00:24:49;13.80;;;12.40;;
9124;SDS011;4597;48.730;9.114;2023-05-16T00:27:14;14.03;;;12.63;;
9124;SDS011;4597;48.730;9.114;2023-05-16T00:29:40;13.53;;;12.13;;
9124;SDS011;4597;48.730;9.114;2023-05-16T00:32:06;14.03;;;12.73;;
9124;SDS011;4597;48.730;9.114;2023-05-16T00:34:32;13.30;;;12.10;;
9124;SDS011;4597;48.730;9.114;2023-05-16T00:36:58;14.97;;;13.47;;
9124;SDS011;4597;48.730;9.114;2023-05-16T00:39:24;14.17;;;12.77;;
9124;SDS011;4597;48.730;9.114;2023-05-16T00:41:49;17.03;;;14.70;;
9124;SDS011;4597;48.730;9.114;2023-05-16T00:44:15;15.70;;;14.20;;
9124;SDS011;4597;48.730;9.114;2023-05-16T00:46:41;15.83;;;14.27;;
9124;SDS011;4597;48.730;9.114;2023-05-16T00:49:06;16.23;;;14.63;;
9124;SDS011;4597;48.730;9.114;2023-05-16T00:51:33;19.90;;;15.83;;
9124;SDS011;4597;48.730;9.114;2023-05-16T00:53:58;17.23;;;15.23;;
9124;SDS011;4597;48.730;9.114;2023-05-16T00:56:24;18.43;;;16.63;;
9124;SDS011;4597;48.730;9.114;2023-05-16T00:58:50;17.20;;;15.53;;
9124;SDS011;4597;48.730;9.114;2023-05-16T01:01:15;17.77;;;15.87;;
9124;SDS011;4597;48.730;9.114;2023-05-16T01:03:42;18.97;;;17.07;;
9124;SDS011;4597;48.730;9.114;2023-05-16T01:06:10;20.03;;;16.60;;
9124;SDS011;4597;48.730;9.114;2023-05-16T01:08:36;19.20;;;17.13;;
9124;SDS011;4597;48.730;9.114;2023-05-16T01:16:35;20.90;;;18.77;;
9124;SDS011;4597;48.730;9.114;2023-05-16T01:22:32;21.63;;;19.33;;
9124;SDS011;4597;48.730;9.114;2023-05-16T01:27:57;20.33;;;18.20;;
9124;SDS011;4597;48.730;9.114;2023-05-16T01:30:23;22.87;;;19.50;;
9124;SDS011;4597;48.730;9.114;2023-05-16T01:32:49;23.00;;;19.80;;
9124;SDS011;4597;48.730;9.114;2023-05-16T01:35:15;22.53;;;19.73;;
9124;SDS011;4597;48.730;9.114;2023-05-16T01:37:44;24.93;;;20.43;;
9124;SDS011;4597;48.730;9.114;2023-05-16T01:40:42;25.17;;;20.47;;
9124;SDS011;4597;48.730;9.114;2023-05-16T01:43:15;22.97;;;20.13;;
9124;SDS011;4597;48.730;9.114;2023-05-16T01:45:46;22.73;;;20.27;;
9124;SDS011;4597;48.730;9.114;2023-05-16T01:48:21;25.97;;;20.53;;
9124;SDS011;4597;48.730;9.114;2023-05-16T01:50:51;24.80;;;20.47;;
9124;SDS011;4597;48.730;9.114;2023-05-16T01:53:32;23.27;;;19.83;;
9124;SDS011;4597;48.730;9.114;2023-05-16T01:56:03;24.57;;;21.00;;
9124;SDS011;4597;48.730;9.114;2023-05-16T01:58:34;23.63;;;20.60;;
9124;SDS011;4597;48.730;9.114;2023-05-16T02:01:02;27.50;;;21.87;;
9124;SDS011;4597;48.730;9.114;2023-05-16T02:03:29;24.53;;;20.63;;
9124;SDS011;4597;48.730;9.114;2023-05-16T02:05:55;24.07;;;20.57;;
9124;SDS011;4597;48.730;9.114;2023-05-16T02:08:21;24.27;;;21.60;;
9124;SDS011;4597;48.730;9.114;2023-05-16T02:10:48;28.37;;;21.97;;
9124;SDS011;4597;48.730;9.114;2023-05-16T02:13:13;27.53;;;21.40;;
9124;SDS011;4597;48.730;9.114;2023-05-16T02:15:39;27.57;;;22.83;;
9124;SDS011;4597;48.730;9.114;2023-05-16T02:18:04;27.50;;;21.43;;
9124;SDS011;4597;48.730;9.114;2023-05-16T02:20:30;28.77;;;23.53;;
9124;SDS011;4597;48.730;9.114;2023-05-16T02:22:55;35.60;;;24.20;;
9124;SDS011;4597;48.730;9.114;2023-05-16T02:25:21;28.47;;;23.07;;
9124;SDS011;4597;48.730;9.114;2023-05-16T02:27:47;34.70;;;25.93;;
9124;SDS011;4597;48.730;9.114;2023-05-16T02:30:13;32.47;;;24.83;;
9124;SDS011;4597;48.730;9.114;2023-05-16T02:32:39;30.93;;;24.40;;
9124;SDS011;4597;48.730;9.114;2023-05-16T02:35:05;36.17;;;26.50;;
9124;SDS011;4597;48.730;9.114;2023-05-16T02:37:32;36.60;;;26.33;;
9124;SDS011;4597;48.730;9.114;2023-05-16T02:39:57;33.63;;;25.83;;
9124;SDS011;4597;48.730;9.114;2023-05-16T02:42:25;36.83;;;27.23;;
9124;SDS011;4597;48.730;9.114;2023-05-16T02:44:54;33.53;;;27.20;;
9124;SDS011;4597;48.730;9.114;2023-05-16T02:47:20;37.63;;;28.97;;
9124;SDS011;4597;48.730;9.114;2023-05-16T02:49:45;38.17;;;27.67;;
9124;SDS011;4597;48.730;9.114;2023-05-16T02:52:11;41.63;;;29.67;;
9124;SDS011;4597;48.730;9.114;2023-05-16T02:54:37;39.90;;;30.33;;
9124;SDS011;4597;48.730;9.114;2023-05-16T02:57:02;41.57;;;29.53;;
9124;SDS011;4597;48.730;9.114;2023-05-16T02:59:28;40.87;;;28.97;;
9124;SDS011;4597;48.730;9.114;2023-05-16T03:01:54;41.40;;;28.63;;
9124;SDS011;4597;48.730;9.114;2023-05-16T03:04:19;40.20;;;29.37;;
9124;SDS011;4597;48.730;9.114;2023-05-16T03:06:45;38.10;;;29.83;;
9124;SDS011;4597;48.730;9.114;2023-05-16T03:09:10;39.13;;;28.93;;
9124;SDS011;4597;48.730;9.114;2023-05-16T03:11:36;40.97;;;29.13;;
9124;SDS011;4597;48.730;9.114;2023-05-16T03:14:01;42.10;;;31.10;;
9124;SDS011;4597;48.730;9.114;2023-05-16T03:16:27;41.73;;;30.10;;
9124;SDS011;4597;48.730;9.114;2023-05-16T03:18:52;42.03;;;30.47;;
9124;SDS011;4597;48.730;9.114;2023-05-16T03:21:18;40.00;;;29.43;;
9124;SDS011;4597;48.730;9.114;2023-05-16T03:23:43;41.97;;;29.57;;
9124;SDS011;4597;48.730;9.114;2023-05-16T03:26:09;42.67;;;30.00;;
9124;SDS011;4597;48.730;9.114;2023-05-16T03:28:35;43.07;;;30.17;;
9124;SDS011;4597;48.730;9.114;2023-05-16T03:31:01;43.37;;;31.07;;
9124;SDS011;4597;48.730;9.114;2023-05-16T03:33:26;44.73;;;31.47;;
9124;SDS011;4597;48.730;9.114;2023-05-16T03:35:52;41.57;;;30.60;;
9124;SDS011;4597;48.730;9.114;2023-05-16T03:38:17;43.53;;;30.13;;
9124;SDS011;4597;48.730;9.114;2023-05-16T03:40:43;44.50;;;32.10;;
9124;SDS011;4597;48.730;9.114;2023-05-16T03:43:08;47.47;;;32.43;;
9124;SDS011;4597;48.730;9.114;2023-05-16T03:45:34;41.60;;;30.87;;
9124;SDS011;4597;48.730;9.114;2023-05-16T03:47:59;42.40;;;31.60;;
9124;SDS011;4597;48.730;9.114;2023-05-16T03:50:25;44.43;;;30.97;;
9124;SDS011;4597;48.730;9.114;2023-05-16T03:52:51;48.03;;;31.13;;
9124;SDS011;4597;48.730;9.114;2023-05-16T03:55:19;44.43;;;31.40;;
9124;SDS011;4597;48.730;9.114;2023-05-16T03:57:45;41.50;;;32.10;;
9124;SDS011;4597;48.730;9.114;2023-05-16T04:00:11;42.23;;;31.60;;
9124;SDS011;4597;48.730;9.114;2023-05-16T04:02:38;46.17;;;32.40;;
9124;SDS011;4597;48.730;9.114;2023-05-16T04:05:05;47.07;;;32.20;;
9124;SDS011;4597;48.730;9.114;2023-05-16T04:07:32;41.77;;;30.87;;
9124;SDS011;4597;48.730;9.114;2023-05-16T04:09:57;44.57;;;32.53;;
9124;SDS011;4597;48.730;9.114;2023-05-16T04:12:23;45.83;;;32.43;;
9124;SDS011;4597;48.730;9.114;2023-05-16T04:14:48;47.10;;;31.10;;
9124;SDS011;4597;48.730;9.114;2023-05-16T04:17:14;46.40;;;31.87;;
9124;SDS011;4597;48.730;9.114;2023-05-16T04:19:39;41.03;;;31.13;;
9124;SDS011;4597;48.730;9.114;2023-05-16T04:22:05;46.00;;;30.43;;
9124;SDS011;4597;48.730;9.114;2023-05-16T04:24:31;47.93;;;32.57;;
9124;SDS011;4597;48.730;9.114;2023-05-16T04:26:57;48.37;;;32.17;;
9124;SDS011;4597;48.730;9.114;2023-05-16T04:29:23;45.20;;;32.27;;
9124;SDS011;4597;48.730;9.114;2023-05-16T04:31:48;42.90;;;31.07;;
9124;SDS011;4597;48.730;9.114;2023-05-16T04:34:14;42.83;;;31.17;;
9124;SDS011;4597;48.730;9.114;2023-05-16T04:36:39;41.17;;;31.53;;
9124;SDS011;4597;48.730;9.114;2023-05-16T04:39:05;42.77;;;31.20;;
9124;SDS011;4597;48.730;9.114;2023-05-16T04:41:31;40.27;;;30.17;;
9124;SDS011;4597;48.730;9.114;2023-05-16T04:43:59;42.70;;;30.60;;
9124;SDS011;4597;48.730;9.114;2023-05-16T04:46:28;41.40;;;30.20;;
9124;SDS011;4597;48.730;9.114;2023-05-16T04:48:53;45.70;;;30.90;;
9124;SDS011;4597;48.730;9.114;2023-05-16T04:51:19;43.73;;;31.03;;
9124;SDS011;4597;48.730;9.114;2023-05-16T04:53:45;40.73;;;29.20;;
9124;SDS011;4597;48.730;9.114;2023-05-16T04:56:11;43.43;;;30.27;;
9124;SDS011;4597;48.730;9.114;2023-05-16T04:58:37;42.27;;;30.00;;
9124;SDS011;4597;48.730;9.114;2023-05-16T05:01:02;42.67;;;30.07;;
9124;SDS011;4597;48.730;9.114;2023-05-16T05:03:28;42.23;;;29.83;;
9124;SDS011;4597;48.730;9.114;2023-05-16T05:05:53;38.90;;;29.27;;
9124;SDS011;4597;48.730;9.114;2023-05-16T05:08:19;38.83;;;29.37;;
9124;SDS011;4597;48.730;9.114;2023-05-16T05:10:45;42.83;;;29.30;;
9124;SDS011;4597;48.730;9.114;2023-05-16T05:13:11;38.37;;;29.53;;
9124;SDS011;4597;48.730;9.114;2023-05-16T05:15:37;39.17;;;29.13;;
9124;SDS011;4597;48.730;9.114;2023-05-16T05:18:02;38.43;;;29.10;;
9124;SDS011;4597;48.730;9.114;2023-05-16T05:20:28;40.67;;;29.93;;
9124;SDS011;4597;48.730;9.114;2023-05-16T05:22:54;35.33;;;28.03;;
9124;SDS011;4597;48.730;9.114;2023-05-16T05:25:19;38.83;;;28.93;;
9124;SDS011;4597;48.730;9.114;2023-05-16T05:27:45;40.57;;;27.93;;
9124;SDS011;4597;48.730;9.114;2023-05-16T05:30:11;39.30;;;28.03;;
9124;SDS011;4597;48.730;9.114;2023-05-16T05:32:36;37.97;;;27.87;;
9124;SDS011;4597;48.730;9.114;2023-05-16T05:35:02;37.63;;;28.37;;
9124;SDS011;4597;48.730;9.114;2023-05-16T05:37:28;33.33;;;25.73;;
9124;SDS011;4597;48.730;9.114;2023-05-16T05:39:54;35.97;;;27.73;;
9124;SDS011;4597;48.730;9.114;2023-05-16T05:42:20;32.27;;;25.90;;
9124;SDS011;4597;48.730;9.114;2023-05-16T05:44:45;35.00;;;26.07;;
9124;SDS011;4597;48.730;9.114;2023-05-16T05:47:11;34.00;;;25.83;;
9124;SDS011;4597;48.730;9.114;2023-05-16T05:49:36;33.80;;;27.03;;
9124;SDS011;4597;48.730;9.114;2023-05-16T05:52:02;37.23;;;26.00;;
9124;SDS011;4597;48.730;9.114;2023-05-16T05:54:28;31.77;;;25.40;;
9124;SDS011;4597;48.730;9.114;2023-05-16T05:56:54;33.20;;;25.67;;
9124;SDS011;4597;48.730;9.114;2023-05-16T05:59:21;31.73;;;24.80;;
9124;SDS011;4597;48.730;9.114;2023-05-16T06:01:46;31.67;;;24.80;;
9124;SDS011;4597;48.730;9.114;2023-05-16T06:04:16;30.33;;;23.43;;
9124;SDS011;4597;48.730;9.114;2023-05-16T06:06:45;30.33;;;23.27;;
9124;SDS011;4597;48.730;9.114;2023-05-16T06:09:11;29.03;;;23.30;;
9124;SDS011;4597;48.730;9.114;2023-05-16T06:11:37;30.73;;;24.43;;
9124;SDS011;4597;48.730;9.114;2023-05-16T06:14:03;31.43;;;23.40;;
9124;SDS011;4597;48.730;9.114;2023-05-16T06:16:29;29.10;;;23.37;;
9124;SDS011;4597;48.730;9.114;2023-05-16T06:18:55;29.23;;;22.53;;
9124;SDS011;4597;48.730;9.114;2023-05-16T06:21:20;28.27;;;22.80;;
9124;SDS011;4597;48.730;9.114;2023-05-16T06:23:46;29.80;;;23.37;;
9124;SDS011;4597;48.730;9.114;2023-05-16T06:26:12;34.23;;;23.00;;
9124;SDS011;4597;48.730;9.114;2023-05-16T06:28:37;29.17;;;22.10;;
9124;SDS011;4597;48.730;9.114;2023-05-16T06:31:03;25.20;;;21.23;;
9124;SDS011;4597;48.730;9.114;2023-05-16T06:33:28;27.40;;;22.70;;
9124;SDS011;4597;48.730;9.114;2023-05-16T06:35:54;28.53;;;21.90;;
9124;SDS011;4597;48.730;9.114;2023-05-16T06:38:20;27.57;;;22.23;;
9124;SDS011;4597;48.730;9.114;2023-05-16T06:40:45;30.37;;;21.13;;
9124;SDS011;4597;48.730;9.114;2023-05-16T06:43:11;27.93;;;22.43;;
9124;SDS011;4597;48.730;9.114;2023-05-16T06:45:37;29.30;;;23.20;;
9124;SDS011;4597;48.730;9.114;2023-05-16T06:48:03;31.17;;;22.07;;
9124;SDS011;4597;48.730;9.114;2023-05-16T06:50:29;28.67;;;21.73;;
9124;SDS011;4597;48.730;9.114;2023-05-16T06:52:54;27.87;;;22.43;;
9124;SDS011;4597;48.730;9.114;2023-05-16T06:55:20;26.10;;;21.27;;
9124;SDS011;4597;48.730;9.114;2023-05-16T06:57:45;29.83;;;22.37;;
9124;SDS011;4597;48.730;9.114;2023-05-16T07:00:12;30.20;;;22.00;;
9124;SDS011;4597;48.730;9.114;2023-05-16T07:02:38;27.77;;;21.37;;
9124;SDS011;4597;48.730;9.114;2023-05-16T07:05:03;27.37;;;21.27;;
9124;SDS011;4597;48.730;9.114;2023-05-16T07:07:30;28.10;;;21.30;;
9124;SDS011;4597;48.730;9.114;2023-05-16T07:09:55;25.90;;;20.77;;
9124;SDS011;4597;48.730;9.114;2023-05-16T07:12:21;27.27;;;20.43;;
9124;SDS011;4597;48.730;9.114;2023-05-16T07:14:46;26.87;;;20.00;;
9124;SDS011;4597;48.730;9.114;2023-05-16T07:17:12;26.97;;;20.63;;
9124;SDS011;4597;48.730;9.114;2023-05-16T07:19:37;26.77;;;20.97;;
9124;SDS011;4597;48.730;9.114;2023-05-16T07:22:03;25.97;;;20.37;;
9124;SDS011;4597;48.730;9.114;2023-05-16T07:24:29;21.73;;;17.90;;
9124;SDS011;4597;48.730;9.114;2023-05-16T07:26:54;24.73;;;18.67;;
9124;SDS011;4597;48.730;9.114;2023-05-16T07:29:20;22.13;;;18.13;;
9124;SDS011;4597;48.730;9.114;2023-05-16T07:31:45;21.40;;;17.80;;
9124;SDS011;4597;48.730;9.114;2023-05-16T07:34:11;23.37;;;17.87;;
9124;SDS011;4597;48.730;9.114;2023-05-16T07:36:37;21.13;;;16.70;;
9124;SDS011;4597;48.730;9.114;2023-05-16T07:39:02;17.90;;;14.93;;
9124;SDS011;4597;48.730;9.114;2023-05-16T07:41:28;19.47;;;14.70;;
9124;SDS011;4597;48.730;9.114;2023-05-16T07:43:54;19.27;;;15.03;;
9124;SDS011;4597;48.730;9.114;2023-05-16T07:46:20;17.40;;;14.80;;
9124;SDS011;4597;48.730;9.114;2023-05-16T07:48:46;16.97;;;14.70;;
9124;SDS011;4597;48.730;9.114;2023-05-16T07:51:12;18.30;;;14.77;;
9124;SDS011;4597;48.730;9.114;2023-05-16T07:53:37;18.60;;;14.67;;
9124;SDS011;4597;48.730;9.114;2023-05-16T07:56:03;16.60;;;14.23;;
9124;SDS011;4597;48.730;9.114;2023-05-16T07:58:29;18.47;;;14.70;;
9124;SDS011;4597;48.730;9.114;2023-05-16T08:00:54;18.00;;;14.33;;
9124;SDS011;4597;48.730;9.114;2023-05-16T08:03:20;18.20;;;14.57;;
9124;SDS011;4597;48.730;9.114;2023-05-16T08:05:46;18.87;;;15.67;;
9124;SDS011;4597;48.730;9.114;2023-05-16T08:08:12;19.83;;;16.00;;
9124;SDS011;4597;48.730;9.114;2023-05-16T08:10:38;20.30;;;15.87;;
9124;SDS011;4597;48.730;9.114;2023-05-16T08:13:04;21.27;;;16.57;;
9124;SDS011;4597;48.730;9.114;2023-05-16T08:15:29;17.03;;;14.50;;
9124;SDS011;4597;48.730;9.114;2023-05-16T08:17:58;19.23;;;15.73;;
9124;SDS011;4597;48.730;9.114;2023-05-16T08:20:24;21.00;;;17.43;;
9124;SDS011;4597;48.730;9.114;2023-05-16T08:22:50;21.03;;;17.33;;
9124;SDS011;4597;48.730;9.114;2023-05-16T08:25:16;22.07;;;17.43;;
9124;SDS011;4597;48.730;9.114;2023-05-16T08:27:43;23.50;;;17.20;;
9124;SDS011;4597;48.730;9.114;2023-05-16T08:30:10;22.17;;;17.33;;
9124;SDS011;4597;48.730;9.114;2023-05-16T08:32:36;23.90;;;16.57;;
9124;SDS011;4597;48.730;9.114;2023-05-16T08:35:01;22.80;;;18.07;;
9124;SDS011;4597;48.730;9.114;2023-05-16T08:37:27;23.53;;;17.90;;
9124;SDS011;4597;48.730;9.114;2023-05-16T08:39:53;21.60;;;17.27;;
9124;SDS011;4597;48.730;9.114;2023-05-16T08:42:18;21.33;;;17.17;;
9124;SDS011;4597;48.730;9.114;2023-05-16T08:44:44;20.37;;;16.63;;
9124;SDS011;4597;48.730;9.114;2023-05-16T08:47:11;22.20;;;17.57;;
9124;SDS011;4597;48.730;9.114;2023-05-16T08:49:41;21.33;;;16.83;;
9124;SDS011;4597;48.730;9.114;2023-05-16T08:52:08;21.57;;;17.87;;
9124;SDS011;4597;48.730;9.114;2023-05-16T08:54:35;20.50;;;17.03;;
9124;SDS011;4597;48.730;9.114;2023-05-16T08:57:01;21.47;;;16.43;;
9124;SDS011;4597;48.730;9.114;2023-05-16T08:59:27;25.47;;;17.67;;
9124;SDS011;4597;48.730;9.114;2023-05-16T09:01:53;19.80;;;16.70;;
9124;SDS011;4597;48.730;9.114;2023-05-16T09:04:19;21.27;;;16.47;;
9124;SDS011;4597;48.730;9.114;2023-05-16T09:06:45;22.03;;;16.80;;
9124;SDS011;4597;48.730;9.114;2023-05-16T09:09:12;19.93;;;15.73;;
9124;SDS011;4597;48.730;9.114;2023-05-16T09:11:38;17.70;;;14.60;;
9124;SDS011;4597;48.730;9.114;2023-05-16T09:14:03;19.57;;;14.57;;
9124;SDS011;4597;48.730;9.114;2023-05-16T09:16:29;18.23;;;14.53;;
9124;SDS011;4597;48.730;9.114;2023-05-16T09:18:56;15.83;;;13.17;;
9124;SDS011;4597;48.730;9.114;2023-05-16T09:21:27;16.93;;;13.43;;
9124;SDS011;4597;48.730;9.114;2023-05-16T09:23:55;17.60;;;13.47;;
9124;SDS011;4597;48.730;9.114;2023-05-16T09:26:21;16.50;;;12.87;;
9124;SDS011;4597;48.730;9.114;2023-05-16T09:28:47;18.57;;;13.77;;
9124;SDS011;4597;48.730;9.114;2023-05-16T09:31:23;16.37;;;12.83;;
9124;SDS011;4597;48.730;9.114;2023-05-16T09:34:00;14.63;;;12.87;;
9124;SDS011;4597;48.730;9.114;2023-05-16T09:36:26;17.60;;;12.20;;
9124;SDS011;4597;48.730;9.114;2023-05-16T09:38:52;18.07;;;13.27;;
9124;SDS011;4597;48.730;9.114;2023-05-16T09:41:18;14.07;;;11.73;;
9124;SDS011;4597;48.730;9.114;2023-05-16T09:43:46;14.07;;;10.97;;
9124;SDS011;4597;48.730;9.114;2023-05-16T09:46:12;12.77;;;10.13;;
9124;SDS011;4597;48.730;9.114;2023-05-16T09:48:47;12.83;;;10.37;;
9124;SDS011;4597;48.730;9.114;2023-05-16T09:51:15;13.70;;;10.53;;
9124;SDS011;4597;48.730;9.114;2023-05-16T09:53:46;13.83;;;9.37;;
9124;SDS011;4597;48.730;9.114;2023-05-16T09:56:12;11.97;;;9.63;;
9124;SDS011;4597;48.730;9.114;2023-05-16T09:58:40;10.63;;;8.80;;
9124;SDS011;4597;48.730;9.114;2023-05-16T10:01:07;10.33;;;8.77;;
9124;SDS011;4597;48.730;9.114;2023-05-16T10:03:34;11.23;;;8.40;;
9124;SDS011;4597;48.730;9.114;2023-05-16T10:06:02;9.53;;;8.23;;
9124;SDS011;4597;48.730;9.114;2023-05-16T10:08:28;9.20;;;7.83;;
9124;SDS011;4597;48.730;9.114;2023-05-16T10:10:56;10.70;;;7.90;;
9124;SDS011;4597;48.730;9.114;2023-05-16T10:13:22;8.10;;;7.23;;
9124;SDS011;4597;48.730;9.114;2023-05-16T10:15:50;8.33;;;7.20;;
9124;SDS011;4597;48.730;9.114;2023-05-16T10:18:20;8.97;;;6.80;;
9124;SDS011;4597;48.730;9.114;2023-05-16T10:20:47;8.93;;;7.00;;
9124;SDS011;4597;48.730;9.114;2023-05-16T10:23:17;7.57;;;6.77;;
9124;SDS011;4597;48.730;9.114;2023-05-16T10:25:44;7.57;;;5.83;;
9124;SDS011;4597;48.730;9.114;2023-05-16T10:28:12;6.00;;;5.50;;
9124;SDS011;4597;48.730;9.114;2023-05-16T10:30:42;7.80;;;5.40;;
9124;SDS011;4597;48.730;9.114;2023-05-16T10:33:14;7.73;;;4.83;;
9124;SDS011;4597;48.730;9.114;2023-05-16T10:35:41;6.57;;;5.87;;
9124;SDS011;4597;48.730;9.114;2023-05-16T10:38:07;6.80;;;6.10;;
9124;SDS011;4597;48.730;9.114;2023-05-16T10:40:36;8.80;;;6.17;;
9124;SDS011;4597;48.730;9.114;2023-05-16T10:43:03;7.03;;;6.33;;
9124;SDS011;4597;48.730;9.114;2023-05-16T10:45:30;7.53;;;6.63;;
9124;SDS011;4597;48.730;9.114;2023-05-16T10:48:02;7.53;;;6.23;;
9124;SDS011;4597;48.730;9.114;2023-05-16T10:50:33;7.07;;;5.73;;
9124;SDS011;4597;48.730;9.114;2023-05-16T11:01:18;7.10;;;5.47;;
9124;SDS011;4597;48.730;9.114;2023-05-16T11:06:22;5.57;;;5.03;;
9124;SDS011;4597;48.730;9.114;2023-05-16T11:17:08;5.00;;;4.33;;
9124;SDS011;4597;48.730;9.114;2023-05-16T11:19:44;5.87;;;4.67;;
9124;SDS011;4597;48.730;9.114;2023-05-16T11:24:51;4.70;;;4.40;;
9124;SDS011;4597;48.730;9.114;2023-05-16T11:27:23;4.57;;;4.27;;
9124;SDS011;4597;48.730;9.114;2023-05-16T11:29:51;4.13;;;3.83;;
9124;SDS011;4597;48.730;9.114;2023-05-16T11:32:21;4.40;;;4.10;;
9124;SDS011;4597;48.730;9.114;2023-05-16T11:34:47;3.87;;;3.67;;
9124;SDS011;4597;48.730;9.114;2023-05-16T11:37:14;4.17;;;3.87;;
9124;SDS011;4597;48.730;9.114;2023-05-16T11:39:40;3.83;;;3.53;;
9124;SDS011;4597;48.730;9.114;2023-05-16T11:42:06;3.50;;;3.30;;
9124;SDS011;4597;48.730;9.114;2023-05-16T11:44:32;4.13;;;3.83;;
9124;SDS011;4597;48.730;9.114;2023-05-16T11:46:58;3.80;;;3.40;;
9124;SDS011;4597;48.730;9.114;2023-05-16T11:49:26;3.53;;;3.23;;
9124;SDS011;4597;48.730;9.114;2023-05-16T11:51:52;4.30;;;3.80;;
9124;SDS011;4597;48.730;9.114;2023-05-16T11:54:18;3.57;;;3.37;;
9124;SDS011;4597;48.730;9.114;2023-05-16T11:56:44;3.53;;;3.27;;
9124;SDS011;4597;48.730;9.114;2023-05-16T11:59:10;3.67;;;3.37;;
9124;SDS011;4597;48.730;9.114;2023-05-16T12:01:36;3.73;;;3.43;;
9124;SDS011;4597;48.730;9.114;2023-05-16T12:04:09;3.20;;;3.00;;
9124;SDS011;4597;48.730;9.114;2023-05-16T12:06:36;3.73;;;3.30;;
9124;SDS011;4597;48.730;9.114;2023-05-16T12:09:06;2.80;;;2.70;;
9124;SDS011;4597;48.730;9.114;2023-05-16T12:11:36;2.73;;;2.57;;
9124;SDS011;4597;48.730;9.114;2023-05-16T12:14:06;3.30;;;3.00;;
9124;SDS011;4597;48.730;9.114;2023-05-16T12:16:32;5.20;;;2.87;;
9124;SDS011;4597;48.730;9.114;2023-05-16T12:19:00;3.20;;;2.90;;
9124;SDS011;4597;48.730;9.114;2023-05-16T12:21:26;3.73;;;3.27;;
9124;SDS011;4597;48.730;9.114;2023-05-16T12:23:55;3.70;;;3.40;;
9124;SDS011;4597;48.730;9.114;2023-05-16T12:26:29;3.00;;;2.90;;
9124;SDS011;4597;48.730;9.114;2023-05-16T12:28:56;3.63;;;3.33;;
9124;SDS011;4597;48.730;9.114;2023-05-16T12:31:29;4.07;;;2.83;;
9124;SDS011;4597;48.730;9.114;2023-05-16T12:33:59;6.27;;;2.80;;
9124;SDS011;4597;48.730;9.114;2023-05-16T12:36:25;4.57;;;2.93;;
9124;SDS011;4597;48.730;9.114;2023-05-16T12:38:58;2.60;;;2.40;;
9124;SDS011;4597;48.730;9.114;2023-05-16T12:41:28;3.20;;;2.60;;
9124;SDS011;4597;48.730;9.114;2023-05-16T12:44:10;2.70;;;2.50;;
9124;SDS011;4597;48.730;9.114;2023-05-16T12:46:44;4.10;;;2.30;;
9124;SDS011;4597;48.730;9.114;2023-05-16T12:49:12;2.77;;;2.43;;
9124;SDS011;4597;48.730;9.114;2023-05-16T12:51:38;2.37;;;2.20;;
9124;SDS011;4597;48.730;9.114;2023-05-16T12:54:11;2.67;;;2.50;;
9124;SDS011;4597;48.730;9.114;2023-05-16T12:56:37;3.63;;;2.27;;
9124;SDS011;4597;48.730;9.114;2023-05-16T12:59:04;3.10;;;2.77;;
9124;SDS011;4597;48.730;9.114;2023-05-16T13:01:29;2.43;;;2.23;;
9124;SDS011;4597;48.730;9.114;2023-05-16T13:03:55;2.37;;;2.10;;
9124;SDS011;4597;48.730;9.114;2023-05-16T13:06:20;3.43;;;1.93;;
9124;SDS011;4597;48.730;9.114;2023-05-16T13:08:46;2.53;;;1.90;;
9124;SDS011;4597;48.730;9.114;2023-05-16T13:11:11;2.40;;;1.80;;
9124;SDS011;4597;48.730;9.114;2023-05-16T13:13:37;1.50;;;1.50;;
9124;SDS011;4597;48.730;9.114;2023-05-16T13:16:02;2.17;;;2.00;;
9124;SDS011;4597;48.730;9.114;2023-05-16T13:18:29;2.00;;;1.90;;
9124;SDS011;4597;48.730;9.114;2023-05-16T13:20:55;3.37;;;2.07;;
9124;SDS011;4597;48.730;9.114;2023-05-16T13:23:20;1.83;;;1.73;;
9124;SDS011;4597;48.730;9.114;2023-05-16T13:25:46;2.50;;;1.83;;
9124;SDS011;4597;48.730;9.114;2023-05-16T13:28:11;1.63;;;1.53;;
9124;SDS011;4597;48.730;9.114;2023-05-16T13:30:37;1.67;;;1.57;;
9124;SDS011;4597;48.730;9.114;2023-05-16T13:33:03;3.03;;;1.73;;
9124;SDS011;4597;48.730;9.114;2023-05-16T13:35:28;1.60;;;1.50;;
9124;SDS011;4597;48.730;9.114;2023-05-16T13:37:54;1.87;;;1.50;;
9124;SDS011;4597;48.730;9.114;2023-05-16T13:40:20;2.27;;;2.00;;
9124;SDS011;4597;48.730;9.114;2023-05-16T13:42:45;2.23;;;1.67;;
9124;SDS011;4597;48.730;9.114;2023-05-16T13:45:10;5.00;;;1.90;;
9124;SDS011;4597;48.730;9.114;2023-05-16T13:47:37;3.43;;;1.80;;
9124;SDS011;4597;48.730;9.114;2023-05-16T13:50:03;1.80;;;1.70;;
9124;SDS011;4597;48.730;9.114;2023-05-16T13:52:33;1.80;;;1.70;;
9124;SDS011;4597;48.730;9.114;2023-05-16T13:54:59;2.17;;;1.97;;
9124;SDS011;4597;48.730;9.114;2023-05-16T13:57:24;2.17;;;1.60;;
9124;SDS011;4597;48.730;9.114;2023-05-16T13:59:51;1.70;;;1.60;;
9124;SDS011;4597;48.730;9.114;2023-05-16T14:02:17;4.40;;;1.53;;
9124;SDS011;4597;48.730;9.114;2023-05-16T14:04:42;3.10;;;1.70;;
9124;SDS011;4597;48.730;9.114;2023-05-16T14:07:08;2.77;;;1.80;;
9124;SDS011;4597;48.730;9.114;2023-05-16T14:09:33;2.97;;;1.60;;
9124;SDS011;4597;48.730;9.114;2023-05-16T14:12:02;2.47;;;1.63;;
9124;SDS011;4597;48.730;9.114;2023-05-16T14:14:35;2.87;;;1.80;;
9124;SDS011;4597;48.730;9.114;2023-05-16T14:17:01;2.27;;;1.70;;
9124;SDS011;4597;48.730;9.114;2023-05-16T14:19:28;1.70;;;1.60;;
9124;SDS011;4597;48.730;9.114;2023-05-16T14:21:54;2.20;;;1.70;;
9124;SDS011;4597;48.730;9.114;2023-05-16T14:24:19;2.17;;;1.50;;
9124;SDS011;4597;48.730;9.114;2023-05-16T14:26:45;1.70;;;1.60;;
9124;SDS011;4597;48.730;9.114;2023-05-16T14:29:11;2.10;;;1.90;;
9124;SDS011;4597;48.730;9.114;2023-05-16T14:31:37;2.07;;;1.83;;
9124;SDS011;4597;48.730;9.114;2023-05-16T14:34:03;2.87;;;1.70;;
9124;SDS011;4597;48.730;9.114;2023-05-16T14:36:28;2.23;;;1.43;;
9124;SDS011;4597;48.730;9.114;2023-05-16T14:38:55;4.10;;;1.93;;
9124;SDS011;4597;48.730;9.114;2023-05-16T14:41:21;3.97;;;1.97;;
9124;SDS011;4597;48.730;9.114;2023-05-16T14:43:46;3.13;;;1.93;;
9124;SDS011;4597;48.730;9.114;2023-05-16T14:46:12;3.03;;;2.00;;
9124;SDS011;4597;48.730;9.114;2023-05-16T14:48:38;2.30;;;1.77;;
9124;SDS011;4597;48.730;9.114;2023-05-16T14:51:03;4.57;;;2.00;;
9124;SDS011;4597;48.730;9.114;2023-05-16T14:53:30;3.30;;;2.30;;
9124;SDS011;4597;48.730;9.114;2023-05-16T14:55:55;3.80;;;2.10;;
9124;SDS011;4597;48.730;9.114;2023-05-16T14:58:21;3.03;;;2.33;;
9124;SDS011;4597;48.730;9.114;2023-05-16T15:00:47;5.83;;;1.90;;
9124;SDS011;4597;48.730;9.114;2023-05-16T15:03:14;4.30;;;2.13;;
9124;SDS011;4597;48.730;9.114;2023-05-16T15:05:41;3.67;;;2.20;;
9124;SDS011;4597;48.730;9.114;2023-05-16T15:08:06;2.60;;;1.83;;
9124;SDS011;4597;48.730;9.114;2023-05-16T15:10:32;3.63;;;2.30;;
9124;SDS011;4597;48.730;9.114;2023-05-16T15:12:57;3.33;;;2.10;;
9124;SDS011;4597;48.730;9.114;2023-05-16T15:15:23;2.73;;;1.90;;
9124;SDS011;4597;48.730;9.114;2023-05-16T15:17:48;2.63;;;1.97;;
9124;SDS011;4597;48.730;9.114;2023-05-16T15:20:14;3.83;;;2.00;;
9124;SDS011;4597;48.730;9.114;2023-05-16T15:22:39;4.33;;;1.83;;
9124;SDS011;4597;48.730;9.114;2023-05-16T15:25:05;3.83;;;2.10;;
9124;SDS011;4597;48.730;9.114;2023-05-16T15:27:32;3.27;;;1.70;;